sensor_id;sensor_type;location;lat;lon;timestamp;P1;durP1;ratioP1;P2;durP2;ratioP2
82176;SDS011;71758;48.714;9.584;2023-12-20T00:00:51;5.00;;;2.13;;
82176;SDS011;71758;48.714;9.584;2023-12-20T00:03:17;4.93;;;1.80;;
82176;SDS011;71758;48.714;9.584;2023-12-20T00:05:42;5.85;;;2.15;;
82176;SDS011;71758;48.714;9.584;2023-12-20T00:08:07;5.00;;;2.15;;
82176;SDS011;71758;48.714;9.584;2023-12-20T00:10:33;5.32;;;2.08;;
82176;SDS011;71758;48.714;9.584;2023-12-20T00:12:58;7.70;;;2.20;;
82176;SDS011;71758;48.714;9.584;2023-12-20T00:15:23;4.97;;;2.20;;
82176;SDS011;71758;48.714;9.584;2023-12-20T00:17:49;5.07;;;2.20;;
82176;SDS011;71758;48.714;9.584;2023-12-20T00:20:14;5.18;;;2.08;;
82176;SDS011;71758;48.714;9.584;2023-12-20T00:22:39;5.63;;;2.00;;
82176;SDS011;71758;48.714;9.584;2023-12-20T00:25:05;4.68;;;2.03;;
82176;SDS011;71758;48.714;9.584;2023-12-20T00:27:30;4.20;;;1.75;;
82176;SDS011;71758;48.714;9.584;2023-12-20T00:29:56;3.95;;;1.80;;
82176;SDS011;71758;48.714;9.584;2023-12-20T00:32:21;5.57;;;1.95;;
82176;SDS011;71758;48.714;9.584;2023-12-20T00:34:46;4.20;;;1.83;;
82176;SDS011;71758;48.714;9.584;2023-12-20T00:37:12;4.57;;;1.88;;
82176;SDS011;71758;48.714;9.584;2023-12-20T00:39:37;3.88;;;1.90;;
82176;SDS011;71758;48.714;9.584;2023-12-20T00:42:03;4.40;;;1.70;;
82176;SDS011;71758;48.714;9.584;2023-12-20T00:44:28;4.10;;;1.60;;
82176;SDS011;71758;48.714;9.584;2023-12-20T00:46:54;4.03;;;1.67;;
82176;SDS011;71758;48.714;9.584;2023-12-20T00:49:19;6.15;;;1.95;;
82176;SDS011;71758;48.714;9.584;2023-12-20T00:51:44;5.20;;;2.17;;
82176;SDS011;71758;48.714;9.584;2023-12-20T00:54:10;4.57;;;2.05;;
82176;SDS011;71758;48.714;9.584;2023-12-20T00:56:35;5.25;;;2.15;;
82176;SDS011;71758;48.714;9.584;2023-12-20T00:59:01;4.63;;;1.92;;
82176;SDS011;71758;48.714;9.584;2023-12-20T01:01:26;4.60;;;2.28;;
82176;SDS011;71758;48.714;9.584;2023-12-20T01:03:52;5.38;;;2.30;;
82176;SDS011;71758;48.714;9.584;2023-12-20T01:06:17;5.95;;;2.13;;
82176;SDS011;71758;48.714;9.584;2023-12-20T01:08:43;5.70;;;2.05;;
82176;SDS011;71758;48.714;9.584;2023-12-20T01:11:08;4.70;;;2.25;;
82176;SDS011;71758;48.714;9.584;2023-12-20T01:13:33;5.65;;;1.85;;
82176;SDS011;71758;48.714;9.584;2023-12-20T01:16:00;4.47;;;2.00;;
82176;SDS011;71758;48.714;9.584;2023-12-20T01:18:25;5.35;;;1.92;;
82176;SDS011;71758;48.714;9.584;2023-12-20T01:20:50;4.90;;;2.10;;
82176;SDS011;71758;48.714;9.584;2023-12-20T01:23:16;5.22;;;2.05;;
82176;SDS011;71758;48.714;9.584;2023-12-20T01:25:41;4.70;;;2.03;;
82176;SDS011;71758;48.714;9.584;2023-12-20T01:28:06;7.20;;;2.10;;
82176;SDS011;71758;48.714;9.584;2023-12-20T01:30:32;4.65;;;1.90;;
82176;SDS011;71758;48.714;9.584;2023-12-20T01:32:59;4.10;;;1.83;;
82176;SDS011;71758;48.714;9.584;2023-12-20T01:35:25;4.07;;;1.65;;
82176;SDS011;71758;48.714;9.584;2023-12-20T01:37:50;4.43;;;1.52;;
82176;SDS011;71758;48.714;9.584;2023-12-20T01:40:16;5.65;;;1.73;;
82176;SDS011;71758;48.714;9.584;2023-12-20T01:42:41;3.95;;;1.25;;
82176;SDS011;71758;48.714;9.584;2023-12-20T01:45:07;3.92;;;1.40;;
82176;SDS011;71758;48.714;9.584;2023-12-20T01:47:32;4.32;;;1.48;;
82176;SDS011;71758;48.714;9.584;2023-12-20T01:49:58;4.78;;;1.13;;
82176;SDS011;71758;48.714;9.584;2023-12-20T01:52:24;4.32;;;1.20;;
82176;SDS011;71758;48.714;9.584;2023-12-20T01:54:50;3.45;;;1.00;;
82176;SDS011;71758;48.714;9.584;2023-12-20T01:57:16;3.28;;;1.00;;
82176;SDS011;71758;48.714;9.584;2023-12-20T01:59:41;4.30;;;1.20;;
82176;SDS011;71758;48.714;9.584;2023-12-20T02:02:07;4.38;;;1.25;;
82176;SDS011;71758;48.714;9.584;2023-12-20T02:04:32;5.03;;;1.30;;
82176;SDS011;71758;48.714;9.584;2023-12-20T02:06:58;3.53;;;1.20;;
82176;SDS011;71758;48.714;9.584;2023-12-20T02:09:24;5.43;;;1.35;;
82176;SDS011;71758;48.714;9.584;2023-12-20T02:11:49;3.15;;;1.40;;
82176;SDS011;71758;48.714;9.584;2023-12-20T02:14:14;3.05;;;1.30;;
82176;SDS011;71758;48.714;9.584;2023-12-20T02:16:40;3.67;;;1.50;;
82176;SDS011;71758;48.714;9.584;2023-12-20T02:19:06;6.00;;;1.60;;
82176;SDS011;71758;48.714;9.584;2023-12-20T02:21:38;4.88;;;1.30;;
82176;SDS011;71758;48.714;9.584;2023-12-20T02:24:03;3.88;;;1.30;;
82176;SDS011;71758;48.714;9.584;2023-12-20T02:26:29;3.17;;;1.23;;
82176;SDS011;71758;48.714;9.584;2023-12-20T02:28:54;3.33;;;1.02;;
82176;SDS011;71758;48.714;9.584;2023-12-20T02:31:23;3.38;;;1.20;;
82176;SDS011;71758;48.714;9.584;2023-12-20T02:33:48;3.72;;;1.23;;
82176;SDS011;71758;48.714;9.584;2023-12-20T02:36:14;4.00;;;1.10;;
82176;SDS011;71758;48.714;9.584;2023-12-20T02:38:39;3.53;;;1.40;;
82176;SDS011;71758;48.714;9.584;2023-12-20T02:41:05;3.25;;;0.98;;
82176;SDS011;71758;48.714;9.584;2023-12-20T02:43:30;2.90;;;1.10;;
82176;SDS011;71758;48.714;9.584;2023-12-20T02:45:56;4.22;;;1.23;;
82176;SDS011;71758;48.714;9.584;2023-12-20T02:48:21;4.18;;;1.15;;
82176;SDS011;71758;48.714;9.584;2023-12-20T02:50:47;2.97;;;1.00;;
82176;SDS011;71758;48.714;9.584;2023-12-20T02:53:14;3.75;;;1.13;;
82176;SDS011;71758;48.714;9.584;2023-12-20T02:55:39;3.13;;;1.20;;
82176;SDS011;71758;48.714;9.584;2023-12-20T02:58:05;5.45;;;1.48;;
82176;SDS011;71758;48.714;9.584;2023-12-20T03:00:30;3.72;;;1.40;;
82176;SDS011;71758;48.714;9.584;2023-12-20T03:02:55;3.08;;;1.10;;
82176;SDS011;71758;48.714;9.584;2023-12-20T03:05:21;3.63;;;1.55;;
82176;SDS011;71758;48.714;9.584;2023-12-20T03:07:46;3.70;;;1.52;;
82176;SDS011;71758;48.714;9.584;2023-12-20T03:10:11;3.50;;;1.60;;
82176;SDS011;71758;48.714;9.584;2023-12-20T03:12:37;3.35;;;1.35;;
82176;SDS011;71758;48.714;9.584;2023-12-20T03:15:02;3.45;;;1.48;;
82176;SDS011;71758;48.714;9.584;2023-12-20T03:17:28;3.15;;;1.33;;
82176;SDS011;71758;48.714;9.584;2023-12-20T03:19:53;3.97;;;1.50;;
82176;SDS011;71758;48.714;9.584;2023-12-20T03:22:18;3.78;;;1.40;;
82176;SDS011;71758;48.714;9.584;2023-12-20T03:24:44;3.38;;;1.63;;
82176;SDS011;71758;48.714;9.584;2023-12-20T03:27:09;5.72;;;1.90;;
82176;SDS011;71758;48.714;9.584;2023-12-20T03:29:34;3.27;;;1.50;;
82176;SDS011;71758;48.714;9.584;2023-12-20T03:32:00;3.63;;;1.80;;
82176;SDS011;71758;48.714;9.584;2023-12-20T03:34:26;4.35;;;1.88;;
82176;SDS011;71758;48.714;9.584;2023-12-20T03:36:51;5.43;;;1.83;;
82176;SDS011;71758;48.714;9.584;2023-12-20T03:39:17;3.90;;;1.92;;
82176;SDS011;71758;48.714;9.584;2023-12-20T03:41:42;5.07;;;1.92;;
82176;SDS011;71758;48.714;9.584;2023-12-20T03:44:07;4.43;;;1.92;;
82176;SDS011;71758;48.714;9.584;2023-12-20T03:46:33;6.40;;;1.77;;
82176;SDS011;71758;48.714;9.584;2023-12-20T03:48:58;4.35;;;1.55;;
82176;SDS011;71758;48.714;9.584;2023-12-20T03:51:24;4.90;;;1.40;;
82176;SDS011;71758;48.714;9.584;2023-12-20T03:53:49;4.13;;;1.75;;
82176;SDS011;71758;48.714;9.584;2023-12-20T03:56:14;3.83;;;1.40;;
82176;SDS011;71758;48.714;9.584;2023-12-20T03:58:40;3.80;;;1.30;;
82176;SDS011;71758;48.714;9.584;2023-12-20T04:01:11;4.10;;;1.58;;
82176;SDS011;71758;48.714;9.584;2023-12-20T04:03:39;3.28;;;1.30;;
82176;SDS011;71758;48.714;9.584;2023-12-20T04:06:05;3.33;;;1.38;;
82176;SDS011;71758;48.714;9.584;2023-12-20T04:08:30;4.40;;;1.40;;
82176;SDS011;71758;48.714;9.584;2023-12-20T04:10:56;3.42;;;1.33;;
82176;SDS011;71758;48.714;9.584;2023-12-20T04:13:21;3.28;;;1.35;;
82176;SDS011;71758;48.714;9.584;2023-12-20T04:15:46;3.80;;;1.35;;
82176;SDS011;71758;48.714;9.584;2023-12-20T04:18:13;3.50;;;1.38;;
82176;SDS011;71758;48.714;9.584;2023-12-20T04:20:38;2.95;;;1.33;;
82176;SDS011;71758;48.714;9.584;2023-12-20T04:23:03;3.20;;;1.20;;
82176;SDS011;71758;48.714;9.584;2023-12-20T04:25:29;4.22;;;1.50;;
82176;SDS011;71758;48.714;9.584;2023-12-20T04:27:54;4.10;;;1.40;;
82176;SDS011;71758;48.714;9.584;2023-12-20T04:30:19;5.45;;;1.33;;
82176;SDS011;71758;48.714;9.584;2023-12-20T04:32:45;3.63;;;1.33;;
82176;SDS011;71758;48.714;9.584;2023-12-20T04:35:10;5.83;;;1.40;;
82176;SDS011;71758;48.714;9.584;2023-12-20T04:37:35;4.10;;;1.20;;
82176;SDS011;71758;48.714;9.584;2023-12-20T04:40:01;4.18;;;1.17;;
82176;SDS011;71758;48.714;9.584;2023-12-20T04:42:26;4.32;;;1.45;;
82176;SDS011;71758;48.714;9.584;2023-12-20T04:44:52;4.82;;;1.58;;
82176;SDS011;71758;48.714;9.584;2023-12-20T04:47:17;2.87;;;1.07;;
82176;SDS011;71758;48.714;9.584;2023-12-20T04:49:42;3.25;;;1.45;;
82176;SDS011;71758;48.714;9.584;2023-12-20T04:52:08;4.65;;;1.23;;
82176;SDS011;71758;48.714;9.584;2023-12-20T04:54:33;4.65;;;1.40;;
82176;SDS011;71758;48.714;9.584;2023-12-20T04:56:58;4.90;;;1.45;;
82176;SDS011;71758;48.714;9.584;2023-12-20T04:59:24;2.97;;;1.00;;
82176;SDS011;71758;48.714;9.584;2023-12-20T05:01:49;4.43;;;1.40;;
82176;SDS011;71758;48.714;9.584;2023-12-20T05:04:15;3.90;;;1.50;;
82176;SDS011;71758;48.714;9.584;2023-12-20T05:06:40;6.80;;;1.73;;
82176;SDS011;71758;48.714;9.584;2023-12-20T05:09:06;3.72;;;1.35;;
82176;SDS011;71758;48.714;9.584;2023-12-20T05:11:31;6.45;;;1.67;;
82176;SDS011;71758;48.714;9.584;2023-12-20T05:13:57;4.97;;;2.13;;
82176;SDS011;71758;48.714;9.584;2023-12-20T05:16:22;5.97;;;2.47;;
82176;SDS011;71758;48.714;9.584;2023-12-20T05:18:48;6.07;;;2.55;;
82176;SDS011;71758;48.714;9.584;2023-12-20T05:21:14;5.45;;;2.65;;
82176;SDS011;71758;48.714;9.584;2023-12-20T05:23:40;7.90;;;2.40;;
82176;SDS011;71758;48.714;9.584;2023-12-20T05:26:05;10.73;;;4.88;;
82176;SDS011;71758;48.714;9.584;2023-12-20T05:28:31;4.78;;;1.92;;
82176;SDS011;71758;48.714;9.584;2023-12-20T05:30:56;4.72;;;1.90;;
82176;SDS011;71758;48.714;9.584;2023-12-20T05:33:22;4.93;;;1.75;;
82176;SDS011;71758;48.714;9.584;2023-12-20T05:35:47;6.55;;;1.60;;
82176;SDS011;71758;48.714;9.584;2023-12-20T05:38:12;4.68;;;1.30;;
82176;SDS011;71758;48.714;9.584;2023-12-20T05:40:38;3.80;;;1.25;;
82176;SDS011;71758;48.714;9.584;2023-12-20T05:43:03;4.95;;;1.50;;
82176;SDS011;71758;48.714;9.584;2023-12-20T05:45:29;5.20;;;1.35;;
82176;SDS011;71758;48.714;9.584;2023-12-20T05:47:54;3.50;;;1.10;;
82176;SDS011;71758;48.714;9.584;2023-12-20T05:50:20;5.90;;;1.60;;
82176;SDS011;71758;48.714;9.584;2023-12-20T05:52:46;3.53;;;1.20;;
82176;SDS011;71758;48.714;9.584;2023-12-20T05:55:11;3.75;;;1.25;;
82176;SDS011;71758;48.714;9.584;2023-12-20T05:57:37;3.08;;;1.20;;
82176;SDS011;71758;48.714;9.584;2023-12-20T06:00:02;3.38;;;0.90;;
82176;SDS011;71758;48.714;9.584;2023-12-20T06:02:28;2.60;;;0.90;;
82176;SDS011;71758;48.714;9.584;2023-12-20T06:04:54;2.85;;;0.70;;
82176;SDS011;71758;48.714;9.584;2023-12-20T06:07:19;2.33;;;0.52;;
82176;SDS011;71758;48.714;9.584;2023-12-20T06:09:45;2.13;;;0.60;;
82176;SDS011;71758;48.714;9.584;2023-12-20T06:12:11;3.67;;;0.93;;
82176;SDS011;71758;48.714;9.584;2023-12-20T06:14:36;3.25;;;0.57;;
82176;SDS011;71758;48.714;9.584;2023-12-20T06:17:02;3.05;;;0.50;;
82176;SDS011;71758;48.714;9.584;2023-12-20T06:19:27;1.60;;;0.55;;
82176;SDS011;71758;48.714;9.584;2023-12-20T06:21:53;2.30;;;0.70;;
82176;SDS011;71758;48.714;9.584;2023-12-20T06:24:18;2.55;;;0.70;;
82176;SDS011;71758;48.714;9.584;2023-12-20T06:26:43;3.83;;;0.80;;
82176;SDS011;71758;48.714;9.584;2023-12-20T06:29:09;3.42;;;0.85;;
82176;SDS011;71758;48.714;9.584;2023-12-20T06:31:34;3.45;;;1.02;;
82176;SDS011;71758;48.714;9.584;2023-12-20T06:34:00;6.03;;;0.70;;
82176;SDS011;71758;48.714;9.584;2023-12-20T06:36:26;3.17;;;0.93;;
82176;SDS011;71758;48.714;9.584;2023-12-20T06:38:51;5.50;;;1.10;;
82176;SDS011;71758;48.714;9.584;2023-12-20T06:41:17;5.80;;;1.00;;
82176;SDS011;71758;48.714;9.584;2023-12-20T06:43:43;5.28;;;1.10;;
82176;SDS011;71758;48.714;9.584;2023-12-20T06:46:08;5.20;;;1.30;;
82176;SDS011;71758;48.714;9.584;2023-12-20T06:48:34;5.85;;;1.50;;
82176;SDS011;71758;48.714;9.584;2023-12-20T06:51:00;3.25;;;1.48;;
82176;SDS011;71758;48.714;9.584;2023-12-20T06:53:27;4.43;;;1.50;;
82176;SDS011;71758;48.714;9.584;2023-12-20T06:55:52;3.17;;;1.25;;
82176;SDS011;71758;48.714;9.584;2023-12-20T06:58:18;5.18;;;1.50;;
82176;SDS011;71758;48.714;9.584;2023-12-20T07:00:43;4.50;;;1.60;;
82176;SDS011;71758;48.714;9.584;2023-12-20T07:03:09;3.92;;;1.60;;
82176;SDS011;71758;48.714;9.584;2023-12-20T07:05:34;5.55;;;1.48;;
82176;SDS011;71758;48.714;9.584;2023-12-20T07:08:00;3.85;;;1.58;;
82176;SDS011;71758;48.714;9.584;2023-12-20T07:10:25;3.80;;;1.67;;
82176;SDS011;71758;48.714;9.584;2023-12-20T07:12:50;4.07;;;1.65;;
82176;SDS011;71758;48.714;9.584;2023-12-20T07:15:17;3.78;;;1.50;;
82176;SDS011;71758;48.714;9.584;2023-12-20T07:17:43;4.38;;;1.90;;
82176;SDS011;71758;48.714;9.584;2023-12-20T07:20:09;5.55;;;1.67;;
82176;SDS011;71758;48.714;9.584;2023-12-20T07:22:35;4.13;;;1.55;;
82176;SDS011;71758;48.714;9.584;2023-12-20T07:25:01;6.13;;;1.90;;
82176;SDS011;71758;48.714;9.584;2023-12-20T07:27:27;7.65;;;1.83;;
82176;SDS011;71758;48.714;9.584;2023-12-20T07:29:52;3.70;;;1.50;;
82176;SDS011;71758;48.714;9.584;2023-12-20T07:32:18;4.95;;;1.55;;
82176;SDS011;71758;48.714;9.584;2023-12-20T07:34:43;5.72;;;2.00;;
82176;SDS011;71758;48.714;9.584;2023-12-20T07:37:09;8.07;;;2.50;;
82176;SDS011;71758;48.714;9.584;2023-12-20T07:39:41;4.82;;;1.92;;
82176;SDS011;71758;48.714;9.584;2023-12-20T07:42:07;4.38;;;2.30;;
82176;SDS011;71758;48.714;9.584;2023-12-20T07:44:33;5.03;;;2.20;;
82176;SDS011;71758;48.714;9.584;2023-12-20T07:46:58;4.15;;;2.33;;
82176;SDS011;71758;48.714;9.584;2023-12-20T07:49:24;9.05;;;2.90;;
82176;SDS011;71758;48.714;9.584;2023-12-20T07:51:49;7.07;;;2.83;;
82176;SDS011;71758;48.714;9.584;2023-12-20T07:54:15;7.60;;;2.72;;
82176;SDS011;71758;48.714;9.584;2023-12-20T07:56:40;9.27;;;2.80;;
82176;SDS011;71758;48.714;9.584;2023-12-20T07:59:06;8.05;;;2.25;;
82176;SDS011;71758;48.714;9.584;2023-12-20T08:01:31;6.22;;;3.00;;
82176;SDS011;71758;48.714;9.584;2023-12-20T08:03:57;4.78;;;2.10;;
82176;SDS011;71758;48.714;9.584;2023-12-20T08:06:22;7.07;;;2.20;;
82176;SDS011;71758;48.714;9.584;2023-12-20T08:08:48;5.40;;;2.30;;
82176;SDS011;71758;48.714;9.584;2023-12-20T08:11:14;9.50;;;2.50;;
82176;SDS011;71758;48.714;9.584;2023-12-20T08:13:39;6.80;;;1.95;;
82176;SDS011;71758;48.714;9.584;2023-12-20T08:16:05;4.35;;;1.88;;
82176;SDS011;71758;48.714;9.584;2023-12-20T08:18:30;6.78;;;2.20;;
82176;SDS011;71758;48.714;9.584;2023-12-20T08:20:55;8.32;;;2.47;;
82176;SDS011;71758;48.714;9.584;2023-12-20T08:23:21;4.93;;;2.35;;
82176;SDS011;71758;48.714;9.584;2023-12-20T08:25:46;7.97;;;2.25;;
82176;SDS011;71758;48.714;9.584;2023-12-20T08:28:13;6.00;;;2.45;;
82176;SDS011;71758;48.714;9.584;2023-12-20T08:30:38;8.38;;;2.70;;
82176;SDS011;71758;48.714;9.584;2023-12-20T08:33:04;5.50;;;2.63;;
82176;SDS011;71758;48.714;9.584;2023-12-20T08:35:29;6.68;;;2.72;;
82176;SDS011;71758;48.714;9.584;2023-12-20T08:37:55;6.43;;;2.92;;
82176;SDS011;71758;48.714;9.584;2023-12-20T08:40:20;5.63;;;2.88;;
82176;SDS011;71758;48.714;9.584;2023-12-20T08:42:45;5.70;;;2.90;;
82176;SDS011;71758;48.714;9.584;2023-12-20T08:45:11;6.43;;;3.75;;
82176;SDS011;71758;48.714;9.584;2023-12-20T08:47:36;9.63;;;3.63;;
82176;SDS011;71758;48.714;9.584;2023-12-20T08:50:02;6.95;;;3.60;;
82176;SDS011;71758;48.714;9.584;2023-12-20T08:52:28;7.43;;;3.22;;
82176;SDS011;71758;48.714;9.584;2023-12-20T08:54:54;5.25;;;2.85;;
82176;SDS011;71758;48.714;9.584;2023-12-20T08:57:20;5.63;;;2.70;;
82176;SDS011;71758;48.714;9.584;2023-12-20T08:59:46;5.65;;;2.50;;
82176;SDS011;71758;48.714;9.584;2023-12-20T09:02:12;5.18;;;2.45;;
82176;SDS011;71758;48.714;9.584;2023-12-20T09:04:38;5.93;;;2.47;;
82176;SDS011;71758;48.714;9.584;2023-12-20T09:07:04;6.38;;;2.40;;
82176;SDS011;71758;48.714;9.584;2023-12-20T09:09:29;5.22;;;2.30;;
82176;SDS011;71758;48.714;9.584;2023-12-20T09:11:57;4.75;;;2.30;;
82176;SDS011;71758;48.714;9.584;2023-12-20T09:14:22;5.00;;;2.45;;
82176;SDS011;71758;48.714;9.584;2023-12-20T09:16:48;5.97;;;2.17;;
82176;SDS011;71758;48.714;9.584;2023-12-20T09:19:16;7.47;;;2.40;;
82176;SDS011;71758;48.714;9.584;2023-12-20T09:21:41;3.95;;;1.92;;
82176;SDS011;71758;48.714;9.584;2023-12-20T09:24:07;6.60;;;2.50;;
82176;SDS011;71758;48.714;9.584;2023-12-20T09:26:33;6.07;;;2.20;;
82176;SDS011;71758;48.714;9.584;2023-12-20T09:28:59;5.20;;;2.00;;
82176;SDS011;71758;48.714;9.584;2023-12-20T09:31:24;4.57;;;1.85;;
82176;SDS011;71758;48.714;9.584;2023-12-20T09:33:50;5.18;;;2.13;;
82176;SDS011;71758;48.714;9.584;2023-12-20T09:36:15;5.00;;;2.25;;
82176;SDS011;71758;48.714;9.584;2023-12-20T09:38:40;7.43;;;2.65;;
82176;SDS011;71758;48.714;9.584;2023-12-20T09:41:07;5.78;;;2.63;;
82176;SDS011;71758;48.714;9.584;2023-12-20T09:43:32;4.50;;;2.05;;
82176;SDS011;71758;48.714;9.584;2023-12-20T09:46:00;3.65;;;2.03;;
82176;SDS011;71758;48.714;9.584;2023-12-20T09:48:30;4.30;;;2.00;;
82176;SDS011;71758;48.714;9.584;2023-12-20T09:50:56;4.85;;;2.20;;
82176;SDS011;71758;48.714;9.584;2023-12-20T09:53:22;7.18;;;2.60;;
82176;SDS011;71758;48.714;9.584;2023-12-20T09:55:48;8.27;;;2.33;;
82176;SDS011;71758;48.714;9.584;2023-12-20T09:58:14;6.18;;;2.50;;
82176;SDS011;71758;48.714;9.584;2023-12-20T10:00:39;6.68;;;2.65;;
82176;SDS011;71758;48.714;9.584;2023-12-20T10:03:05;7.18;;;2.67;;
82176;SDS011;71758;48.714;9.584;2023-12-20T10:05:32;6.28;;;2.67;;
82176;SDS011;71758;48.714;9.584;2023-12-20T10:07:57;5.90;;;2.97;;
82176;SDS011;71758;48.714;9.584;2023-12-20T10:10:24;5.82;;;2.70;;
82176;SDS011;71758;48.714;9.584;2023-12-20T10:13:09;6.57;;;2.83;;
82176;SDS011;71758;48.714;9.584;2023-12-20T10:15:36;4.78;;;2.50;;
82176;SDS011;71758;48.714;9.584;2023-12-20T10:21:24;7.40;;;3.00;;
82176;SDS011;71758;48.714;9.584;2023-12-20T10:23:56;6.63;;;2.45;;
82176;SDS011;71758;48.714;9.584;2023-12-20T10:26:24;5.57;;;2.70;;
82176;SDS011;71758;48.714;9.584;2023-12-20T10:28:51;5.43;;;2.60;;
82176;SDS011;71758;48.714;9.584;2023-12-20T10:31:30;7.53;;;2.65;;
82176;SDS011;71758;48.714;9.584;2023-12-20T10:33:57;7.70;;;2.47;;
82176;SDS011;71758;48.714;9.584;2023-12-20T10:36:24;7.30;;;2.47;;
82176;SDS011;71758;48.714;9.584;2023-12-20T10:38:59;5.38;;;2.60;;
82176;SDS011;71758;48.714;9.584;2023-12-20T10:41:27;7.78;;;2.70;;
82176;SDS011;71758;48.714;9.584;2023-12-20T10:43:58;6.38;;;2.70;;
82176;SDS011;71758;48.714;9.584;2023-12-20T10:46:24;7.90;;;2.20;;
82176;SDS011;71758;48.714;9.584;2023-12-20T10:48:51;7.53;;;2.35;;
82176;SDS011;71758;48.714;9.584;2023-12-20T10:51:19;5.88;;;1.75;;
82176;SDS011;71758;48.714;9.584;2023-12-20T10:53:46;5.10;;;1.70;;
82176;SDS011;71758;48.714;9.584;2023-12-20T10:56:12;7.13;;;1.33;;
82176;SDS011;71758;48.714;9.584;2023-12-20T10:58:41;8.05;;;1.30;;
82176;SDS011;71758;48.714;9.584;2023-12-20T11:01:08;6.55;;;1.40;;
82176;SDS011;71758;48.714;9.584;2023-12-20T11:03:35;5.55;;;1.30;;
82176;SDS011;71758;48.714;9.584;2023-12-20T11:06:09;5.88;;;1.10;;
82176;SDS011;71758;48.714;9.584;2023-12-20T11:14:13;5.10;;;1.00;;
82176;SDS011;71758;48.714;9.584;2023-12-20T11:16:50;6.32;;;1.00;;
82176;SDS011;71758;48.714;9.584;2023-12-20T11:19:16;5.07;;;0.90;;
82176;SDS011;71758;48.714;9.584;2023-12-20T11:21:42;5.43;;;1.90;;
82176;SDS011;71758;48.714;9.584;2023-12-20T11:24:07;7.72;;;1.20;;
82176;SDS011;71758;48.714;9.584;2023-12-20T11:26:33;4.25;;;0.95;;
82176;SDS011;71758;48.714;9.584;2023-12-20T11:31:56;2.60;;;0.80;;
82176;SDS011;71758;48.714;9.584;2023-12-20T11:34:21;6.63;;;1.50;;
82176;SDS011;71758;48.714;9.584;2023-12-20T11:36:47;3.95;;;0.90;;
82176;SDS011;71758;48.714;9.584;2023-12-20T11:39:15;6.13;;;1.20;;
82176;SDS011;71758;48.714;9.584;2023-12-20T11:41:45;4.22;;;0.82;;
82176;SDS011;71758;48.714;9.584;2023-12-20T11:44:11;4.55;;;0.88;;
82176;SDS011;71758;48.714;9.584;2023-12-20T11:46:37;6.88;;;1.00;;
82176;SDS011;71758;48.714;9.584;2023-12-20T11:49:02;4.75;;;1.00;;
82176;SDS011;71758;48.714;9.584;2023-12-20T11:51:28;5.65;;;1.10;;
82176;SDS011;71758;48.714;9.584;2023-12-20T11:53:53;7.55;;;1.10;;
82176;SDS011;71758;48.714;9.584;2023-12-20T11:56:18;4.60;;;1.13;;
82176;SDS011;71758;48.714;9.584;2023-12-20T11:58:44;7.57;;;1.48;;
82176;SDS011;71758;48.714;9.584;2023-12-20T12:01:09;7.15;;;1.50;;
82176;SDS011;71758;48.714;9.584;2023-12-20T12:03:35;5.20;;;1.00;;
82176;SDS011;71758;48.714;9.584;2023-12-20T12:06:01;6.05;;;1.10;;
82176;SDS011;71758;48.714;9.584;2023-12-20T12:08:29;6.47;;;1.30;;
82176;SDS011;71758;48.714;9.584;2023-12-20T12:10:54;8.82;;;1.35;;
82176;SDS011;71758;48.714;9.584;2023-12-20T12:13:20;5.65;;;1.05;;
82176;SDS011;71758;48.714;9.584;2023-12-20T12:15:48;7.78;;;1.35;;
82176;SDS011;71758;48.714;9.584;2023-12-20T12:18:15;5.50;;;1.30;;
82176;SDS011;71758;48.714;9.584;2023-12-20T12:20:41;5.65;;;1.30;;
82176;SDS011;71758;48.714;9.584;2023-12-20T12:23:07;7.00;;;1.10;;
82176;SDS011;71758;48.714;9.584;2023-12-20T12:25:34;5.38;;;1.13;;
82176;SDS011;71758;48.714;9.584;2023-12-20T12:28:01;3.30;;;0.95;;
82176;SDS011;71758;48.714;9.584;2023-12-20T12:30:26;6.97;;;1.38;;
82176;SDS011;71758;48.714;9.584;2023-12-20T12:32:52;6.72;;;1.23;;
82176;SDS011;71758;48.714;9.584;2023-12-20T12:35:18;5.43;;;1.33;;
82176;SDS011;71758;48.714;9.584;2023-12-20T12:37:44;4.50;;;1.35;;
82176;SDS011;71758;48.714;9.584;2023-12-20T12:42:36;9.75;;;1.73;;
82176;SDS011;71758;48.714;9.584;2023-12-20T12:45:05;4.18;;;1.23;;
82176;SDS011;71758;48.714;9.584;2023-12-20T12:47:32;8.98;;;1.77;;
82176;SDS011;71758;48.714;9.584;2023-12-20T12:49:57;6.55;;;1.50;;
82176;SDS011;71758;48.714;9.584;2023-12-20T12:52:23;3.80;;;0.98;;
82176;SDS011;71758;48.714;9.584;2023-12-20T12:54:48;4.95;;;1.10;;
82176;SDS011;71758;48.714;9.584;2023-12-20T12:57:14;6.68;;;1.50;;
82176;SDS011;71758;48.714;9.584;2023-12-20T13:00:00;6.60;;;1.42;;
82176;SDS011;71758;48.714;9.584;2023-12-20T13:02:25;6.63;;;1.48;;
82176;SDS011;71758;48.714;9.584;2023-12-20T13:04:51;7.90;;;1.63;;
82176;SDS011;71758;48.714;9.584;2023-12-20T13:07:16;8.10;;;1.73;;
82176;SDS011;71758;48.714;9.584;2023-12-20T13:09:42;9.75;;;2.40;;
82176;SDS011;71758;48.714;9.584;2023-12-20T13:12:07;10.32;;;2.08;;
82176;SDS011;71758;48.714;9.584;2023-12-20T13:14:33;4.85;;;1.40;;
82176;SDS011;71758;48.714;9.584;2023-12-20T13:17:00;6.57;;;1.33;;
82176;SDS011;71758;48.714;9.584;2023-12-20T13:19:29;10.68;;;1.70;;
82176;SDS011;71758;48.714;9.584;2023-12-20T13:21:55;7.55;;;1.45;;
82176;SDS011;71758;48.714;9.584;2023-12-20T13:24:21;5.80;;;1.05;;
82176;SDS011;71758;48.714;9.584;2023-12-20T13:26:46;6.15;;;1.00;;
82176;SDS011;71758;48.714;9.584;2023-12-20T13:29:12;4.47;;;1.00;;
82176;SDS011;71758;48.714;9.584;2023-12-20T13:31:37;7.93;;;1.63;;
82176;SDS011;71758;48.714;9.584;2023-12-20T13:34:03;3.17;;;0.90;;
82176;SDS011;71758;48.714;9.584;2023-12-20T13:36:29;4.97;;;1.58;;
82176;SDS011;71758;48.714;9.584;2023-12-20T13:38:54;4.95;;;1.13;;
82176;SDS011;71758;48.714;9.584;2023-12-20T13:41:19;6.03;;;1.27;;
82176;SDS011;71758;48.714;9.584;2023-12-20T13:43:45;11.05;;;1.50;;
82176;SDS011;71758;48.714;9.584;2023-12-20T13:46:10;7.13;;;1.15;;
82176;SDS011;71758;48.714;9.584;2023-12-20T13:48:36;8.35;;;1.30;;
82176;SDS011;71758;48.714;9.584;2023-12-20T13:51:01;6.43;;;1.30;;
82176;SDS011;71758;48.714;9.584;2023-12-20T13:53:27;4.43;;;1.25;;
82176;SDS011;71758;48.714;9.584;2023-12-20T13:55:53;4.85;;;1.38;;
82176;SDS011;71758;48.714;9.584;2023-12-20T13:58:19;6.70;;;1.33;;
82176;SDS011;71758;48.714;9.584;2023-12-20T14:00:45;6.88;;;1.27;;
82176;SDS011;71758;48.714;9.584;2023-12-20T14:03:10;3.97;;;1.00;;
82176;SDS011;71758;48.714;9.584;2023-12-20T14:05:36;5.75;;;1.20;;
82176;SDS011;71758;48.714;9.584;2023-12-20T14:08:02;5.72;;;1.17;;
82176;SDS011;71758;48.714;9.584;2023-12-20T14:10:28;5.65;;;1.02;;
82176;SDS011;71758;48.714;9.584;2023-12-20T14:12:54;6.15;;;1.17;;
82176;SDS011;71758;48.714;9.584;2023-12-20T14:15:20;10.00;;;1.25;;
82176;SDS011;71758;48.714;9.584;2023-12-20T14:17:45;7.72;;;1.38;;
82176;SDS011;71758;48.714;9.584;2023-12-20T14:20:11;5.72;;;1.27;;
82176;SDS011;71758;48.714;9.584;2023-12-20T14:22:41;6.07;;;1.20;;
82176;SDS011;71758;48.714;9.584;2023-12-20T14:25:13;5.15;;;1.15;;
82176;SDS011;71758;48.714;9.584;2023-12-20T14:27:39;5.90;;;1.33;;
82176;SDS011;71758;48.714;9.584;2023-12-20T14:30:05;7.00;;;1.17;;
82176;SDS011;71758;48.714;9.584;2023-12-20T14:32:31;6.25;;;1.25;;
82176;SDS011;71758;48.714;9.584;2023-12-20T14:34:58;4.40;;;1.00;;
82176;SDS011;71758;48.714;9.584;2023-12-20T14:37:23;5.35;;;1.20;;
82176;SDS011;71758;48.714;9.584;2023-12-20T14:39:48;6.65;;;1.48;;
82176;SDS011;71758;48.714;9.584;2023-12-20T14:42:14;5.53;;;1.10;;
82176;SDS011;71758;48.714;9.584;2023-12-20T14:44:40;5.95;;;1.35;;
82176;SDS011;71758;48.714;9.584;2023-12-20T14:47:08;7.20;;;1.23;;
82176;SDS011;71758;48.714;9.584;2023-12-20T14:49:34;5.35;;;1.30;;
82176;SDS011;71758;48.714;9.584;2023-12-20T14:52:00;9.45;;;1.58;;
82176;SDS011;71758;48.714;9.584;2023-12-20T14:54:26;3.75;;;1.05;;